Time;durP1;ratioP1;P1;durP2;ratioP2;P2;SDS_P1;SDS_P2;PMS_P1;PMS_P2;Temp;Humidity;BMP_temperature;BMP_pressure;BME280_temperature;BME280_humidity;BME280_pressure;Samples;Min_cycle;Max_cycle;Signal;HPM_P1;HPM_P2
2021/04/10 00:00:08;;;;;;;4.50;1.30;;;11.80;68.50;;;;;;5033097;28;20606;-67
2021/04/10 00:02:33;;;;;;;4.20;1.58;;;11.80;67.90;;;;;;5032978;28;20209;-67
2021/04/10 00:04:59;;;;;;;3.60;1.30;;;11.80;68.30;;;;;;5032697;28;20186;-67
2021/04/10 00:07:25;;;;;;;4.20;1.17;;;11.80;68.50;;;;;;5035374;28;20209;-67
2021/04/10 00:09:51;;;;;;;3.73;1.10;;;11.80;68.00;;;;;;5052839;28;20407;-68
2021/04/10 00:12:16;;;;;;;3.60;0.90;;;11.80;67.90;;;;;;5052731;28;20180;-67
2021/04/10 00:14:42;;;;;;;3.27;0.90;;;11.90;66.30;;;;;;5052368;28;20177;-67
2021/04/10 00:17:08;;;;;;;3.57;0.60;;;12.10;65.30;;;;;;5052211;28;20190;-67
2021/04/10 00:19:34;;;;;;;3.50;0.70;;;12.30;64.50;;;;;;5052718;28;20166;-68
2021/04/10 00:22:00;;;;;;;3.53;0.68;;;12.50;63.90;;;;;;5052631;28;20185;-67
2021/04/10 00:24:26;;;;;;;3.08;0.60;;;12.60;63.30;;;;;;5052331;28;20157;-68
2021/04/10 00:26:52;;;;;;;3.30;0.60;;;12.80;63.20;;;;;;5052519;28;20212;-68
2021/04/10 00:29:18;;;;;;;3.27;0.90;;;12.90;62.40;;;;;;5052965;28;20173;-67
2021/04/10 00:31:43;;;;;;;3.40;0.83;;;12.90;62.50;;;;;;5040390;28;20190;-67
2021/04/10 00:34:09;;;;;;;4.40;1.00;;;12.90;62.50;;;;;;5032397;28;20173;-68
2021/04/10 00:36:34;;;;;;;3.20;0.77;;;12.90;62.70;;;;;;5035048;28;20229;-67
2021/04/10 00:39:00;;;;;;;3.23;0.80;;;12.90;62.80;;;;;;5035938;28;20162;-68
2021/04/10 00:41:26;;;;;;;3.63;1.00;;;12.90;63.40;;;;;;5035974;28;20225;-67
2021/04/10 00:43:51;;;;;;;4.00;1.27;;;12.90;63.10;;;;;;5035661;28;20521;-68
2021/04/10 00:46:17;;;;;;;4.03;1.23;;;12.80;63.40;;;;;;5036269;28;20190;-67
2021/04/10 00:48:42;;;;;;;3.63;0.93;;;12.80;64.10;;;;;;5036070;28;20213;-67
2021/04/10 00:51:08;;;;;;;3.33;0.80;;;12.70;64.10;;;;;;5035994;28;20170;-67
2021/04/10 00:53:35;;;;;;;3.30;0.87;;;12.70;64.60;;;;;;5035753;28;20541;-68
2021/04/10 00:56:04;;;;;;;3.10;0.68;;;12.70;63.60;;;;;;5053093;28;20307;-67
2021/04/10 00:58:31;;;;;;;3.22;0.82;;;12.70;63.90;;;;;;5055590;28;20204;-68
2021/04/10 01:00:57;;;;;;;3.35;0.77;;;12.70;64.00;;;;;;5055551;28;20197;-67
2021/04/10 01:03:22;;;;;;;4.60;1.03;;;12.70;64.40;;;;;;5055309;28;20654;-67
2021/04/10 01:05:48;;;;;;;3.23;0.73;;;12.70;64.20;;;;;;5055314;28;20181;-67
2021/04/10 01:08:14;;;;;;;4.40;1.20;;;12.70;63.30;;;;;;5054454;28;20260;-67
2021/04/10 01:10:40;;;;;;;3.93;0.90;;;12.70;63.10;;;;;;5055517;28;20184;-66
2021/04/10 01:13:30;;;;;;;3.40;1.00;;;12.80;63.30;;;;;;5054317;28;20420;-68
2021/04/10 01:16:02;;;;;;;3.85;0.85;;;12.80;63.30;;;;;;5055139;28;20428;-67
2021/04/10 01:18:38;;;;;;;3.13;0.90;;;12.80;63.40;;;;;;5040809;28;20210;-68
2021/04/10 01:21:15;;;;;;;3.67;0.95;;;12.80;63.40;;;;;;5035409;28;20211;-68
2021/04/10 01:24:34;;;;;;;3.20;0.80;;;12.80;62.80;;;;;;5035431;28;20165;-67
2021/04/10 01:27:27;;;;;;;3.22;0.80;;;12.80;63.20;;;;;;5033145;28;20332;-68
2021/04/10 01:30:00;;;;;;;3.35;1.10;;;12.80;63.20;;;;;;5035406;28;20636;-68
2021/04/10 01:32:30;;;;;;;7.30;1.48;;;12.80;63.40;;;;;;5035438;28;20165;-67
2021/04/10 01:35:07;;;;;;;3.60;1.00;;;12.80;63.70;;;;;;5034871;28;20190;-68
2021/04/10 01:37:36;;;;;;;3.92;1.50;;;12.70;64.40;;;;;;5035151;28;20221;-67
2021/04/10 01:40:04;;;;;;;2.97;0.50;;;12.70;63.90;;;;;;5043452;28;20189;-67
2021/04/10 01:42:31;;;;;;;4.53;1.02;;;12.70;64.00;;;;;;5034681;28;20177;-67
2021/04/10 01:45:00;;;;;;;3.40;0.80;;;12.70;64.10;;;;;;5034632;28;20621;-67
2021/04/10 01:47:25;;;;;;;3.17;0.95;;;12.70;63.90;;;;;;5034487;28;20308;-68
2021/04/10 01:49:53;;;;;;;3.20;0.67;;;12.70;64.10;;;;;;5034837;28;20560;-67
2021/04/10 01:52:21;;;;;;;3.05;0.73;;;12.70;64.50;;;;;;5034679;28;20787;-67
2021/04/10 01:54:46;;;;;;;4.72;1.25;;;12.70;64.70;;;;;;5034300;28;20677;-67
2021/04/10 01:57:13;;;;;;;5.37;1.10;;;12.70;65.10;;;;;;5034499;28;20182;-67
2021/04/10 01:59:44;;;;;;;3.40;0.85;;;12.70;64.90;;;;;;5034797;28;20412;-68
2021/04/10 02:02:12;;;;;;;3.78;0.80;;;12.60;64.80;;;;;;5034765;28;20253;-67
2021/04/10 02:04:42;;;;;;;4.05;0.90;;;12.60;65.30;;;;;;5034425;28;20320;-67
2021/04/10 02:07:10;;;;;;;3.10;0.88;;;12.60;65.10;;;;;;5034334;28;20190;-68
2021/04/10 02:09:40;;;;;;;3.40;0.50;;;12.60;65.60;;;;;;5034371;28;20170;-68
2021/04/10 02:12:06;;;;;;;5.25;0.80;;;12.60;66.00;;;;;;5034491;28;20166;-68
2021/04/10 02:14:32;;;;;;;3.75;0.90;;;12.60;66.00;;;;;;5034022;28;20174;-68
2021/04/10 02:16:58;;;;;;;2.90;0.60;;;12.60;66.30;;;;;;5034147;28;20597;-68
2021/04/10 02:19:24;;;;;;;3.40;0.98;;;12.50;67.00;;;;;;5032837;28;20583;-67
2021/04/10 02:21:50;;;;;;;3.30;0.77;;;12.50;66.90;;;;;;5052912;28;20210;-68
2021/04/10 02:24:16;;;;;;;3.60;0.97;;;12.50;66.70;;;;;;5045673;28;20608;-68
2021/04/10 02:26:42;;;;;;;3.30;1.07;;;12.50;66.50;;;;;;5033932;28;20417;-67
2021/04/10 02:29:10;;;;;;;3.35;0.80;;;12.50;66.20;;;;;;5033700;28;20273;-67
2021/04/10 02:31:57;;;;;;;3.85;0.82;;;12.60;66.60;;;;;;5033827;28;20180;-68
2021/04/10 02:34:31;;;;;;;3.10;0.68;;;12.60;67.10;;;;;;5039281;28;20162;-67
2021/04/10 02:36:59;;;;;;;3.40;0.60;;;12.50;66.50;;;;;;5042854;28;20241;-67
2021/04/10 02:39:26;;;;;;;11.35;1.00;;;12.50;67.00;;;;;;5044235;28;20183;-66
2021/04/10 02:41:54;;;;;;;3.30;0.80;;;12.60;66.50;;;;;;5042838;28;20244;-67
2021/04/10 02:44:26;;;;;;;3.40;0.80;;;12.60;66.70;;;;;;5041846;28;20536;-67
2021/04/10 02:46:56;;;;;;;6.22;1.40;;;12.60;66.40;;;;;;5042993;28;20190;-66
2021/04/10 02:49:26;;;;;;;3.08;0.55;;;12.70;66.50;;;;;;5041439;28;20196;-67
2021/04/10 02:51:58;;;;;;;4.55;1.08;;;12.60;66.90;;;;;;5043647;28;20319;-68
2021/04/10 02:54:29;;;;;;;3.17;0.60;;;12.70;67.50;;;;;;5043549;28;20177;-67
2021/04/10 02:57:13;;;;;;;3.55;0.90;;;12.70;67.60;;;;;;5043104;28;20190;-67
2021/04/10 02:59:40;;;;;;;3.88;1.10;;;12.60;67.70;;;;;;5041948;28;20181;-68
2021/04/10 03:02:07;;;;;;;3.10;0.80;;;12.60;68.00;;;;;;5043913;28;20658;-67
2021/04/10 03:04:34;;;;;;;3.90;0.60;;;12.60;67.90;;;;;;5042631;28;20204;-66
2021/04/10 03:07:01;;;;;;;4.93;0.85;;;12.60;67.80;;;;;;5041916;28;20284;-67
2021/04/10 03:09:28;;;;;;;3.50;0.75;;;12.60;67.40;;;;;;5041833;28;20166;-67
2021/04/10 03:11:53;;;;;;;7.55;1.30;;;12.60;67.50;;;;;;5053147;28;20547;-68
2021/04/10 03:14:19;;;;;;;3.60;1.27;;;12.60;67.80;;;;;;5051785;28;20169;-67
2021/04/10 03:16:46;;;;;;;3.47;0.70;;;12.60;67.60;;;;;;5053014;28;20323;-68
2021/04/10 03:19:13;;;;;;;3.80;0.70;;;12.60;68.20;;;;;;5053380;28;20404;-68
2021/04/10 03:21:40;;;;;;;3.40;0.75;;;12.60;68.20;;;;;;5053256;28;20312;-68
2021/04/10 03:24:07;;;;;;;3.38;1.10;;;12.60;68.20;;;;;;5052765;28;20169;-68
2021/04/10 03:26:33;;;;;;;3.50;0.82;;;12.70;67.90;;;;;;5053123;28;20192;-68
2021/04/10 03:29:00;;;;;;;4.43;0.65;;;12.60;68.40;;;;;;5035021;28;20198;-68
2021/04/10 03:31:26;;;;;;;3.35;1.20;;;12.60;68.90;;;;;;5031988;28;20186;-67
2021/04/10 03:33:52;;;;;;;3.45;1.00;;;12.60;69.10;;;;;;5033027;28;20166;-66
2021/04/10 03:36:18;;;;;;;3.97;1.20;;;12.60;69.30;;;;;;5041759;28;20204;-67
2021/04/10 03:38:44;;;;;;;5.70;1.90;;;12.60;69.80;;;;;;5053193;28;20204;-66
2021/04/10 03:41:10;;;;;;;3.87;1.27;;;12.60;69.80;;;;;;5052974;28;20205;-66
2021/04/10 03:43:36;;;;;;;3.10;0.70;;;12.60;70.20;;;;;;5053068;28;20172;-67
2021/04/10 03:46:02;;;;;;;3.83;0.70;;;12.50;70.80;;;;;;5052456;28;20189;-67
2021/04/10 03:48:31;;;;;;;4.40;1.27;;;12.50;71.20;;;;;;5052665;28;20426;-67
2021/04/10 03:50:57;;;;;;;5.18;1.20;;;12.50;71.20;;;;;;5044693;28;20413;-67
2021/04/10 03:53:23;;;;;;;3.50;0.93;;;12.50;71.60;;;;;;5033015;28;20200;-67
2021/04/10 03:55:49;;;;;;;3.10;0.97;;;12.50;72.50;;;;;;5032669;28;20673;-67
2021/04/10 03:58:15;;;;;;;4.70;1.53;;;12.50;74.00;;;;;;5032841;28;20194;-67
2021/04/10 04:00:41;;;;;;;5.00;0.88;;;12.50;75.60;;;;;;5051499;28;20193;-67
2021/04/10 04:03:07;;;;;;;3.10;0.60;;;12.40;74.30;;;;;;5052914;28;20188;-67
2021/04/10 04:05:32;;;;;;;3.07;0.60;;;12.40;75.20;;;;;;5052301;28;20431;-67
2021/04/10 04:07:58;;;;;;;3.10;0.60;;;12.40;76.20;;;;;;5051541;28;20173;-66
2021/04/10 04:10:24;;;;;;;3.30;0.60;;;12.40;75.40;;;;;;5055173;28;20256;-67
2021/04/10 04:12:50;;;;;;;3.40;0.70;;;12.40;75.70;;;;;;5056622;28;20248;-67
2021/04/10 04:15:16;;;;;;;3.80;1.07;;;12.40;75.60;;;;;;5038532;28;20420;-67
2021/04/10 04:17:41;;;;;;;3.57;0.80;;;12.40;76.00;;;;;;5036736;28;20791;-67
2021/04/10 04:20:08;;;;;;;6.43;1.50;;;12.40;76.40;;;;;;5036618;28;20502;-66
2021/04/10 04:22:33;;;;;;;3.83;1.02;;;12.40;76.80;;;;;;5036282;28;20205;-67
2021/04/10 04:24:59;;;;;;;4.27;0.90;;;12.40;76.90;;;;;;5034764;28;20174;-67
2021/04/10 04:27:25;;;;;;;3.60;0.93;;;12.40;77.30;;;;;;5036432;28;20225;-67
2021/04/10 04:29:53;;;;;;;4.23;0.97;;;12.40;77.10;;;;;;5036593;28;20170;-67
2021/04/10 04:32:20;;;;;;;3.20;0.77;;;12.40;77.00;;;;;;5036259;28;20177;-67
2021/04/10 04:34:46;;;;;;;3.10;0.60;;;12.30;77.70;;;;;;5036060;28;20178;-67
2021/04/10 04:37:12;;;;;;;3.13;0.57;;;12.30;78.10;;;;;;5042947;28;20217;-67
2021/04/10 04:39:37;;;;;;;3.30;0.70;;;12.30;78.00;;;;;;5037064;28;20706;-66
2021/04/10 04:42:03;;;;;;;3.83;0.80;;;12.30;78.30;;;;;;5034745;28;20217;-67
2021/04/10 04:44:29;;;;;;;3.50;0.70;;;12.30;78.40;;;;;;5036208;28;20613;-67
2021/04/10 04:46:55;;;;;;;3.10;0.50;;;12.20;78.30;;;;;;5036102;28;20265;-67
2021/04/10 04:49:21;;;;;;;3.40;1.00;;;12.30;78.70;;;;;;5034720;28;20174;-67
2021/04/10 04:51:47;;;;;;;3.50;0.80;;;12.20;79.10;;;;;;5034575;28;20170;-67
2021/04/10 04:54:13;;;;;;;3.20;0.70;;;12.20;79.50;;;;;;5035583;28;20644;-67
2021/04/10 04:56:38;;;;;;;3.60;0.97;;;12.20;80.10;;;;;;5035679;28;20437;-66
2021/04/10 04:59:04;;;;;;;3.50;0.90;;;12.20;80.10;;;;;;5035879;28;20212;-66
2021/04/10 05:01:30;;;;;;;3.37;0.57;;;12.20;80.10;;;;;;5035841;28;20190;-66
2021/04/10 05:03:55;;;;;;;4.23;1.20;;;12.20;79.90;;;;;;5034090;28;20918;-66
2021/04/10 05:06:21;;;;;;;4.33;1.27;;;12.20;80.60;;;;;;5039832;28;20212;-67
2021/04/10 05:08:50;;;;;;;4.93;1.30;;;12.10;80.00;;;;;;5055560;28;20165;-67
2021/04/10 05:11:15;;;;;;;3.55;0.63;;;12.10;80.60;;;;;;5055712;28;20162;-67
2021/04/10 05:13:41;;;;;;;3.60;0.60;;;12.10;80.70;;;;;;5055534;28;20717;-67
2021/04/10 05:16:06;;;;;;;3.40;1.13;;;12.10;80.50;;;;;;5054799;28;20197;-66
2021/04/10 05:18:32;;;;;;;3.50;0.77;;;12.00;80.00;;;;;;5055771;28;20181;-66
2021/04/10 05:20:58;;;;;;;3.37;0.80;;;12.10;80.90;;;;;;5055207;28;20200;-67
2021/04/10 05:23:24;;;;;;;4.27;1.30;;;12.10;82.10;;;;;;5055429;28;20180;-67
2021/04/10 05:25:51;;;;;;;6.05;0.95;;;12.00;84.10;;;;;;5054896;28;20591;-68
2021/04/10 05:28:17;;;;;;;3.85;1.00;;;12.00;86.20;;;;;;5055348;28;20192;-67
2021/04/10 05:30:43;;;;;;;3.58;0.93;;;11.80;88.60;;;;;;5040768;28;20232;-67
2021/04/10 05:33:09;;;;;;;4.80;0.60;;;11.70;89.90;;;;;;5035081;28;20209;-68
2021/04/10 05:35:35;;;;;;;3.23;0.73;;;11.60;90.20;;;;;;5034695;28;20915;-67
2021/04/10 05:38:02;;;;;;;4.10;0.80;;;11.50;90.40;;;;;;5035151;28;20407;-67
2021/04/10 05:40:27;;;;;;;4.45;0.80;;;11.50;90.40;;;;;;5035002;28;20647;-70
2021/04/10 05:42:53;;;;;;;8.53;1.10;;;11.40;90.40;;;;;;5033991;28;20174;-68
2021/04/10 05:45:19;;;;;;;4.17;0.83;;;11.40;90.80;;;;;;5034447;28;20178;-67
2021/04/10 05:47:44;;;;;;;3.30;0.63;;;11.40;90.60;;;;;;5034822;28;20678;-68
2021/04/10 05:50:11;;;;;;;3.30;0.60;;;11.40;90.80;;;;;;5033652;28;20209;-68
2021/04/10 05:52:37;;;;;;;5.18;1.10;;;11.40;91.00;;;;;;5034896;28;20224;-67
2021/04/10 05:55:04;;;;;;;3.50;0.70;;;11.40;91.10;;;;;;5035618;28;20165;-67
2021/04/10 05:57:30;;;;;;;3.45;0.75;;;11.40;91.00;;;;;;5054364;28;20289;-67
2021/04/10 05:59:55;;;;;;;8.83;1.30;;;11.40;90.80;;;;;;5054670;28;20256;-67
2021/04/10 06:02:21;;;;;;;3.20;0.50;;;11.40;90.70;;;;;;5037346;28;20178;-67
2021/04/10 06:04:47;;;;;;;3.40;0.60;;;11.40;90.60;;;;;;5034392;28;20568;-68
2021/04/10 06:07:12;;;;;;;3.70;0.70;;;11.40;90.30;;;;;;5034498;28;20194;-67
2021/04/10 06:09:38;;;;;;;3.30;0.60;;;11.50;90.10;;;;;;5034740;28;20253;-67
2021/04/10 06:12:04;;;;;;;3.30;0.50;;;11.40;89.80;;;;;;5034654;28;20236;-67
2021/04/10 06:14:30;;;;;;;3.42;1.02;;;11.50;89.20;;;;;;5032804;28;20675;-67
2021/04/10 06:16:55;;;;;;;6.10;1.20;;;11.50;88.30;;;;;;5048241;28;20197;-68
2021/04/10 06:19:22;;;;;;;3.40;0.67;;;11.50;88.20;;;;;;5052923;28;20185;-67
2021/04/10 06:21:48;;;;;;;3.60;0.93;;;11.60;88.10;;;;;;5054219;28;20201;-67
2021/04/10 06:24:15;;;;;;;3.13;0.50;;;11.60;88.30;;;;;;5047411;28;20201;-68
2021/04/10 06:26:41;;;;;;;3.13;0.45;;;11.60;87.90;;;;;;5037464;28;20494;-67
2021/04/10 06:29:08;;;;;;;3.85;0.77;;;11.70;87.90;;;;;;5051793;28;20165;-67
2021/04/10 06:31:34;;;;;;;3.08;0.47;;;11.70;87.90;;;;;;5053519;28;20359;-66
2021/04/10 06:34:00;;;;;;;3.80;0.50;;;11.70;88.00;;;;;;5053336;28;20214;-68
2021/04/10 06:36:26;;;;;;;3.23;0.60;;;11.70;88.10;;;;;;5066099;28;20659;-67
2021/04/10 06:38:52;;;;;;;3.22;0.60;;;11.70;87.60;;;;;;5053220;28;20420;-68
2021/04/10 06:41:18;;;;;;;3.45;0.80;;;11.70;89.10;;;;;;5053665;28;20204;-68
2021/04/10 06:43:43;;;;;;;3.40;0.70;;;11.60;88.40;;;;;;5054253;28;20173;-67
2021/04/10 06:46:10;;;;;;;3.20;0.70;;;11.60;88.80;;;;;;5047001;28;20490;-66
2021/04/10 06:48:42;;;;;;;3.20;0.57;;;11.60;88.60;;;;;;5050339;28;20192;-66
2021/04/10 06:51:08;;;;;;;3.92;0.65;;;11.60;88.60;;;;;;5049062;28;20559;-67
2021/04/10 06:53:42;;;;;;;3.33;0.75;;;11.60;88.30;;;;;;5050783;28;20196;-67
2021/04/10 06:56:10;;;;;;;3.28;0.70;;;11.60;88.70;;;;;;5043248;28;20275;-67
2021/04/10 06:58:42;;;;;;;3.30;0.60;;;11.60;88.70;;;;;;5033426;28;20193;-67
2021/04/10 07:01:08;;;;;;;3.83;0.82;;;11.60;89.50;;;;;;5052283;28;20559;-67
2021/04/10 07:03:35;;;;;;;3.88;1.25;;;11.60;89.70;;;;;;5036893;28;20201;-68
2021/04/10 07:06:01;;;;;;;3.30;0.60;;;11.70;89.60;;;;;;5033063;28;20190;-67
2021/04/10 07:08:27;;;;;;;3.30;0.70;;;11.70;89.50;;;;;;5040845;28;20256;-68
2021/04/10 07:10:54;;;;;;;3.30;0.70;;;11.60;89.60;;;;;;5044259;28;20269;-67
2021/04/10 07:13:20;;;;;;;3.80;1.05;;;11.60;90.30;;;;;;5033381;28;20768;-67
2021/04/10 07:15:46;;;;;;;3.83;0.57;;;11.60;90.40;;;;;;5040600;28;20194;-67
2021/04/10 07:18:13;;;;;;;3.50;0.63;;;11.60;90.40;;;;;;5053233;28;20173;-67
2021/04/10 07:20:39;;;;;;;3.30;0.60;;;11.60;90.90;;;;;;5051464;28;20193;-68
2021/04/10 07:23:06;;;;;;;5.60;0.95;;;11.60;91.20;;;;;;5033035;28;20249;-67
2021/04/10 07:25:35;;;;;;;3.20;0.55;;;11.60;91.40;;;;;;5037225;28;20614;-67
2021/04/10 07:28:27;;;;;;;5.88;1.17;;;11.70;91.50;;;;;;5033455;28;20169;-68
2021/04/10 07:31:16;;;;;;;3.47;0.80;;;11.60;91.60;;;;;;5037952;28;20181;-67
2021/04/10 07:33:44;;;;;;;4.40;0.93;;;11.60;92.00;;;;;;5047984;28;20933;-66
2021/04/10 07:36:13;;;;;;;3.40;0.90;;;11.60;92.00;;;;;;5033206;28;20189;-66
2021/04/10 07:38:41;;;;;;;3.40;0.93;;;11.60;92.20;;;;;;5037277;28;20169;-66
2021/04/10 07:41:19;;;;;;;5.15;1.20;;;11.70;91.70;;;;;;5052968;28;20193;-67
2021/04/10 07:43:45;;;;;;;6.72;1.50;;;11.70;91.60;;;;;;5051446;28;20227;-66
2021/04/10 07:46:21;;;;;;;3.30;0.55;;;11.70;91.60;;;;;;5056579;28;20264;-69
2021/04/10 07:49:07;;;;;;;4.05;1.60;;;11.80;91.80;;;;;;5050673;28;20182;-67
2021/04/10 07:51:52;;;;;;;3.42;0.70;;;11.80;91.80;;;;;;5056441;28;20227;-67
2021/04/10 07:54:22;;;;;;;3.30;0.68;;;11.80;91.90;;;;;;5052059;28;20271;-66
2021/04/10 07:56:51;;;;;;;4.15;0.95;;;11.80;91.70;;;;;;5056478;28;20201;-65
2021/04/10 07:59:17;;;;;;;3.60;0.68;;;11.90;91.80;;;;;;5056615;28;20197;-69
2021/04/10 08:01:42;;;;;;;3.80;0.87;;;11.90;91.50;;;;;;5056626;28;20207;-67
2021/04/10 08:04:15;;;;;;;3.40;0.70;;;11.90;91.40;;;;;;5042449;28;20178;-68
2021/04/10 08:06:59;;;;;;;3.20;0.60;;;11.90;91.30;;;;;;5036591;28;20197;-67
2021/04/10 08:09:33;;;;;;;7.00;0.70;;;11.90;91.40;;;;;;5036799;28;20240;-68
2021/04/10 08:12:01;;;;;;;3.25;0.68;;;11.90;91.60;;;;;;5036392;28;20177;-68
2021/04/10 08:14:44;;;;;;;3.70;0.90;;;12.00;91.80;;;;;;5036210;28;20166;-67
2021/04/10 08:17:30;;;;;;;3.65;0.82;;;12.00;91.20;;;;;;5039795;28;20189;-67
2021/04/10 08:19:55;;;;;;;3.83;0.80;;;12.10;91.40;;;;;;5036360;28;20180;-67
2021/04/10 08:22:21;;;;;;;4.40;0.73;;;12.10;91.50;;;;;;5036430;28;20249;-69
2021/04/10 08:24:47;;;;;;;3.30;0.60;;;12.10;91.40;;;;;;5036063;28;20166;-68
2021/04/10 08:27:14;;;;;;;3.17;0.50;;;12.10;92.00;;;;;;5036153;28;20432;-67
2021/04/10 08:29:42;;;;;;;3.47;0.55;;;12.00;92.30;;;;;;5036165;28;20660;-69
2021/04/10 08:32:09;;;;;;;3.72;1.15;;;12.00;92.50;;;;;;5036002;28;20189;-69
2021/04/10 08:34:35;;;;;;;4.10;1.00;;;11.90;93.30;;;;;;5035658;28;20166;-68
2021/04/10 08:37:03;;;;;;;3.70;0.93;;;11.90;94.20;;;;;;5036158;28;20186;-68
2021/04/10 08:39:35;;;;;;;3.47;0.70;;;11.90;94.00;;;;;;5036346;28;20170;-68
2021/04/10 08:42:03;;;;;;;3.72;0.60;;;11.90;93.90;;;;;;5036028;28;20344;-69
2021/04/10 08:44:31;;;;;;;3.88;1.13;;;11.90;93.90;;;;;;5035600;28;20189;-68
2021/04/10 08:46:57;;;;;;;3.75;1.10;;;11.90;94.20;;;;;;5036862;28;20194;-67
2021/04/10 08:49:25;;;;;;;13.27;1.23;;;12.00;94.30;;;;;;5055936;28;20632;-67
2021/04/10 08:52:01;;;;;;;3.40;0.73;;;12.10;94.10;;;;;;5054692;28;20185;-66
2021/04/10 08:54:31;;;;;;;3.50;0.88;;;12.20;94.10;;;;;;5055197;28;20264;-66
2021/04/10 08:56:56;;;;;;;3.47;0.70;;;12.20;94.40;;;;;;5054236;28;20675;-66
2021/04/10 08:59:22;;;;;;;3.90;0.70;;;12.30;93.90;;;;;;5055736;28;20196;-67
2021/04/10 09:02:10;;;;;;;3.73;0.97;;;12.30;94.20;;;;;;5053914;28;20266;-66
2021/04/10 09:05:12;;;;;;;4.18;1.60;;;12.40;94.40;;;;;;5036884;28;20174;-66
2021/04/10 09:07:48;;;;;;;3.70;0.65;;;12.40;95.00;;;;;;5037009;28;20237;-67
2021/04/10 09:10:27;;;;;;;3.60;0.80;;;12.50;95.20;;;;;;5054742;28;20181;-67
2021/04/10 09:13:04;;;;;;;3.60;0.60;;;12.60;95.50;;;;;;5054505;28;20249;-66
2021/04/10 09:15:30;;;;;;;3.65;0.65;;;12.50;95.10;;;;;;5054843;28;20194;-67
2021/04/10 09:18:01;;;;;;;3.50;0.77;;;12.60;95.10;;;;;;5051777;28;20174;-66
2021/04/10 09:20:50;;;;;;;3.45;0.80;;;12.70;94.40;;;;;;5055152;28;20451;-67
2021/04/10 09:23:22;;;;;;;3.50;0.60;;;12.70;94.30;;;;;;5054167;28;20275;-67
2021/04/10 09:26:07;;;;;;;3.80;0.98;;;12.80;94.20;;;;;;5046694;28;20534;-67
2021/04/10 09:28:33;;;;;;;3.90;0.80;;;12.90;94.50;;;;;;5046276;28;20670;-67
2021/04/10 09:31:00;;;;;;;8.75;1.40;;;13.00;94.20;;;;;;5055073;28;20200;-66
2021/04/10 09:33:28;;;;;;;3.40;0.70;;;13.10;94.60;;;;;;5053691;28;20208;-68
2021/04/10 09:35:54;;;;;;;5.07;0.90;;;13.10;93.40;;;;;;5054511;28;20194;-67
2021/04/10 09:38:39;;;;;;;4.20;0.85;;;13.20;93.50;;;;;;5055104;28;20175;-66
2021/04/10 09:41:05;;;;;;;3.47;0.60;;;13.20;93.30;;;;;;5054426;28;20197;-67
2021/04/10 09:43:30;;;;;;;4.00;0.63;;;13.30;92.50;;;;;;5054919;28;20397;-66
2021/04/10 09:45:56;;;;;;;3.20;0.60;;;13.40;92.20;;;;;;5052460;28;20801;-64
2021/04/10 09:48:23;;;;;;;4.17;0.80;;;13.40;92.20;;;;;;5050543;28;20653;-67
2021/04/10 09:50:52;;;;;;;3.40;0.60;;;13.40;91.60;;;;;;5034805;28;20258;-68
2021/04/10 09:53:20;;;;;;;3.80;0.85;;;13.40;90.90;;;;;;5053285;28;20969;-68
2021/04/10 09:56:09;;;;;;;4.35;1.20;;;13.30;90.80;;;;;;5044422;28;20204;-67
2021/04/10 09:58:47;;;;;;;4.03;0.80;;;13.30;91.00;;;;;;5034793;28;20198;-66
2021/04/10 10:01:21;;;;;;;3.50;0.80;;;13.30;90.90;;;;;;5034857;28;20196;-65
2021/04/10 10:03:49;;;;;;;3.30;0.70;;;13.40;90.90;;;;;;5034444;28;20386;-66
2021/04/10 10:06:19;;;;;;;3.70;0.97;;;13.40;91.00;;;;;;5042418;28;20863;-66
2021/04/10 10:08:45;;;;;;;3.50;0.87;;;13.40;90.60;;;;;;5034496;28;20887;-69
2021/04/10 10:11:12;;;;;;;3.60;0.80;;;13.50;90.90;;;;;;5033335;28;20421;-68
2021/04/10 10:13:38;;;;;;;4.30;0.90;;;13.40;90.60;;;;;;5054418;28;20827;-70
2021/04/10 10:16:05;;;;;;;3.55;0.60;;;13.40;90.60;;;;;;5053689;28;20234;-68
2021/04/10 10:18:33;;;;;;;3.33;0.67;;;13.50;90.70;;;;;;5035420;28;20182;-70
2021/04/10 10:21:02;;;;;;;3.70;0.97;;;13.50;90.50;;;;;;5042967;28;20448;-67
2021/04/10 10:23:29;;;;;;;3.20;0.57;;;13.50;90.50;;;;;;5036405;28;20476;-71
2021/04/10 10:26:09;;;;;;;3.20;0.60;;;13.60;90.70;;;;;;5048935;28;20531;-70
2021/04/10 10:28:38;;;;;;;3.37;0.77;;;13.80;90.50;;;;;;5035065;28;20413;-70
2021/04/10 10:31:05;;;;;;;4.07;1.07;;;14.00;90.60;;;;;;5034238;28;20822;-70
2021/04/10 10:33:31;;;;;;;3.93;0.80;;;14.20;90.70;;;;;;5051466;28;20499;-68
2021/04/10 10:35:57;;;;;;;3.60;0.80;;;14.40;90.20;;;;;;5041635;28;20893;-68
2021/04/10 10:38:38;;;;;;;3.70;0.80;;;14.70;89.10;;;;;;5045997;28;20190;-66
2021/04/10 10:41:06;;;;;;;6.63;1.00;;;14.70;86.70;;;;;;5060206;28;20813;-67
2021/04/10 10:43:32;;;;;;;4.93;0.80;;;14.80;86.40;;;;;;5063312;28;20453;-69
2021/04/10 10:46:03;;;;;;;5.00;0.90;;;14.80;86.50;;;;;;5060574;28;20482;-68
2021/04/10 10:48:42;;;;;;;3.47;0.73;;;14.90;86.10;;;;;;5048717;28;20417;-68
2021/04/10 10:51:11;;;;;;;3.50;0.97;;;14.90;84.80;;;;;;5040940;28;20508;-69
2021/04/10 10:53:43;;;;;;;4.80;0.80;;;14.90;84.50;;;;;;5034411;28;20918;-71
2021/04/10 10:56:26;;;;;;;3.37;0.67;;;14.80;84.20;;;;;;5046458;28;20537;-68
2021/04/10 10:58:57;;;;;;;4.80;0.90;;;14.70;86.10;;;;;;5053397;28;20845;-70
2021/04/10 11:01:37;;;;;;;3.70;0.93;;;14.60;85.60;;;;;;5039980;28;20460;-66
2021/04/10 11:04:09;;;;;;;3.53;0.87;;;14.60;85.40;;;;;;5033196;28;20399;-68
2021/04/10 11:06:43;;;;;;;4.53;0.90;;;14.50;86.60;;;;;;5047175;28;20453;-69
2021/04/10 11:09:10;;;;;;;4.53;1.17;;;14.40;86.00;;;;;;5044905;28;20459;-70
2021/04/10 11:11:38;;;;;;;3.70;1.10;;;14.40;86.20;;;;;;5038466;28;20756;-69
2021/04/10 11:14:05;;;;;;;5.00;1.60;;;14.40;87.10;;;;;;5032731;28;20418;-71
2021/04/10 11:16:31;;;;;;;3.70;0.80;;;14.50;87.60;;;;;;5046202;28;20473;-69
2021/04/10 11:18:59;;;;;;;3.33;0.70;;;14.70;89.10;;;;;;5052716;28;20415;-71
2021/04/10 11:21:30;;;;;;;3.43;0.83;;;14.80;84.90;;;;;;5040888;28;20884;-70
2021/04/10 11:23:56;;;;;;;3.43;0.63;;;15.00;84.10;;;;;;5046333;28;20461;-70
2021/04/10 11:26:46;;;;;;;3.20;0.60;;;15.10;83.10;;;;;;5040968;28;20853;-70
2021/04/10 11:29:18;;;;;;;3.20;0.60;;;15.30;82.50;;;;;;5045200;28;20914;-69
2021/04/10 11:31:44;;;;;;;3.77;0.90;;;15.40;81.60;;;;;;5042859;28;20499;-66
2021/04/10 11:34:37;;;;;;;4.70;1.03;;;15.60;81.80;;;;;;5051324;28;20502;-66
2021/04/10 11:37:04;;;;;;;7.27;2.30;;;15.70;83.00;;;;;;5051673;28;20533;-65
2021/04/10 11:39:46;;;;;;;4.00;1.00;;;15.90;81.70;;;;;;5052778;28;20426;-65
2021/04/10 11:42:20;;;;;;;5.97;1.40;;;16.10;80.80;;;;;;5033067;28;20474;-66
2021/04/10 11:44:46;;;;;;;4.50;1.33;;;16.30;80.20;;;;;;5033598;28;20730;-66
2021/04/10 11:47:19;;;;;;;3.40;0.97;;;16.60;79.70;;;;;;5053043;28;20507;-66
2021/04/10 11:49:45;;;;;;;3.63;0.60;;;16.90;79.50;;;;;;5052366;28;20178;-66
2021/04/10 11:52:11;;;;;;;3.80;1.00;;;17.10;77.00;;;;;;5037404;28;20417;-66
2021/04/10 11:54:37;;;;;;;3.20;0.70;;;17.20;76.40;;;;;;5052063;28;20225;-67
2021/04/10 11:57:03;;;;;;;3.20;0.60;;;17.20;76.10;;;;;;5048337;28;20493;-67
2021/04/10 11:59:36;;;;;;;5.43;1.90;;;17.10;75.00;;;;;;5032924;28;20409;-67
2021/04/10 12:02:03;;;;;;;3.40;0.53;;;17.00;76.40;;;;;;5050848;28;20992;-67
2021/04/10 12:04:31;;;;;;;3.77;0.83;;;16.90;74.60;;;;;;5052481;28;20422;-65
2021/04/10 12:07:08;;;;;;;3.30;0.80;;;16.80;75.30;;;;;;5034474;28;20438;-66
2021/04/10 12:09:37;;;;;;;3.50;0.60;;;16.90;74.50;;;;;;5033632;28;20401;-66
2021/04/10 12:12:04;;;;;;;4.93;0.73;;;16.90;74.50;;;;;;5034645;28;20405;-66
2021/04/10 12:14:30;;;;;;;3.00;0.60;;;17.10;74.10;;;;;;5032316;28;20383;-66
2021/04/10 12:16:56;;;;;;;3.57;0.60;;;17.30;74.00;;;;;;5048557;28;20448;-68
2021/04/10 12:19:24;;;;;;;4.57;1.17;;;17.30;72.90;;;;;;5052548;28;20412;-66
2021/04/10 12:21:51;;;;;;;3.87;1.17;;;17.30;71.70;;;;;;5037227;28;20510;-66
2021/04/10 12:24:16;;;;;;;3.20;0.70;;;17.30;72.40;;;;;;5032396;28;20421;-65
2021/04/10 12:26:42;;;;;;;3.50;0.90;;;17.30;72.10;;;;;;5038824;28;20446;-66
2021/04/10 12:29:08;;;;;;;3.10;0.53;;;17.40;73.00;;;;;;5032832;28;20176;-66
2021/04/10 12:31:34;;;;;;;3.97;0.80;;;17.70;72.50;;;;;;5047222;28;20422;-65
2021/04/10 12:33:59;;;;;;;3.33;0.70;;;18.10;73.50;;;;;;5053553;28;20183;-67
2021/04/10 12:36:25;;;;;;;3.47;0.57;;;18.40;71.30;;;;;;5036101;28;20209;-68
2021/04/10 12:38:51;;;;;;;3.00;0.50;;;18.50;68.60;;;;;;5038514;28;20174;-67
2021/04/10 12:41:16;;;;;;;3.40;0.80;;;18.60;69.50;;;;;;5037025;28;20236;-68
2021/04/10 12:43:43;;;;;;;3.77;0.60;;;18.70;69.30;;;;;;5035732;28;20421;-67
2021/04/10 12:46:08;;;;;;;3.20;0.60;;;18.70;68.70;;;;;;5054319;28;20196;-66
2021/04/10 12:48:34;;;;;;;3.30;0.70;;;18.20;67.80;;;;;;5041560;28;20452;-68
2021/04/10 12:51:00;;;;;;;3.20;0.70;;;18.00;68.40;;;;;;5053617;28;20209;-67
2021/04/10 12:53:26;;;;;;;3.57;0.60;;;18.00;68.10;;;;;;5056081;28;20172;-68
2021/04/10 12:55:52;;;;;;;3.40;0.60;;;18.00;67.70;;;;;;5038899;28;20836;-68